createdAt,value
2017-11-22T00:00:20.517Z,26.45
2017-11-22T00:00:55.278Z,28.50
2017-11-22T00:01:30.175Z,30.37
2017-11-22T00:02:04.926Z,28.50
2017-11-22T00:02:39.734Z,27.50
2017-11-22T00:03:14.514Z,30.00
2017-11-22T00:03:49.280Z,30.85
2017-11-22T00:04:24.042Z,28.92
2017-11-22T00:04:58.812Z,29.33
2017-11-22T00:05:38.223Z,28.55
2017-11-22T00:06:12.988Z,29.27
2017-11-22T00:06:47.765Z,29.05
2017-11-22T00:07:22.539Z,30.85
2017-11-22T00:07:57.343Z,28.55
2017-11-22T00:08:32.091Z,28.02
2017-11-22T00:09:06.849Z,28.33
2017-11-22T00:09:41.620Z,30.20
2017-11-22T00:10:16.377Z,28.50
2017-11-22T00:10:51.139Z,29.12
2017-11-22T00:11:25.897Z,29.45
2017-11-22T00:12:00.670Z,26.52
2017-11-22T00:12:35.429Z,29.45
2017-11-22T00:13:10.211Z,28.42
2017-11-22T00:13:45.000Z,28.70
2017-11-22T00:14:19.765Z,32.25
2017-11-22T00:14:54.518Z,27.85
2017-11-22T00:15:29.096Z,29.70
2017-11-22T00:16:04.036Z,27.80
2017-11-22T00:16:38.800Z,30.05
2017-11-22T00:17:13.557Z,28.50
2017-11-22T00:17:48.324Z,31.37
2017-11-22T00:18:23.115Z,30.80
2017-11-22T00:18:57.865Z,31.27
2017-11-22T00:19:32.727Z,33.75
2017-11-22T00:20:07.517Z,30.67
2017-11-22T00:20:42.365Z,35.67
2017-11-22T00:21:17.167Z,26.80
2017-11-22T00:21:51.953Z,29.10
2017-11-22T00:22:26.724Z,30.83
2017-11-22T00:23:01.474Z,32.25
2017-11-22T00:23:36.277Z,33.47
2017-11-22T00:24:11.032Z,29.20
2017-11-22T00:24:45.788Z,28.00
2017-11-22T00:25:20.539Z,28.55
2017-11-22T00:25:55.298Z,28.23
2017-11-22T00:26:30.055Z,31.48
2017-11-22T00:27:04.849Z,29.15
2017-11-22T00:27:39.603Z,31.00
2017-11-22T00:28:14.469Z,31.83
2017-11-22T00:28:49.554Z,34.72
2017-11-22T00:29:24.323Z,32.38
2017-11-22T00:29:59.073Z,31.67
2017-11-22T00:30:33.833Z,34.75
2017-11-22T00:31:08.592Z,30.02
2017-11-22T00:31:43.672Z,31.33
2017-11-22T00:32:18.445Z,33.45
2017-11-22T00:32:53.301Z,30.77
2017-11-22T00:33:28.072Z,31.15
2017-11-22T00:34:02.872Z,32.05
2017-11-22T00:34:37.636Z,34.78
2017-11-22T00:35:12.396Z,31.52
2017-11-22T00:35:46.970Z,30.85
2017-11-22T00:36:21.732Z,36.42
2017-11-22T00:36:56.523Z,33.55
2017-11-22T00:37:31.280Z,31.83
2017-11-22T00:38:06.035Z,34.72
2017-11-22T00:38:40.794Z,33.63
2017-11-22T00:39:15.578Z,35.75
2017-11-22T00:39:50.357Z,32.53
2017-11-22T00:40:25.123Z,32.80
2017-11-22T00:40:59.889Z,32.63
2017-11-22T00:41:34.668Z,32.70
2017-11-22T00:42:09.425Z,32.03
2017-11-22T00:42:44.207Z,37.38
2017-11-22T00:43:18.973Z,32.42
2017-11-22T00:43:53.745Z,30.62
2017-11-22T00:44:28.535Z,29.10
2017-11-22T00:45:03.285Z,32.35
2017-11-22T00:45:38.045Z,32.25
2017-11-22T00:46:12.809Z,33.60
2017-11-22T00:46:47.572Z,33.72
2017-11-22T00:47:22.345Z,32.15
2017-11-22T00:47:57.106Z,33.25
2017-11-22T00:48:31.873Z,30.40
2017-11-22T00:49:06.631Z,33.42
2017-11-22T00:49:41.430Z,34.50
2017-11-22T00:50:16.186Z,31.48
2017-11-22T00:50:50.941Z,31.77
2017-11-22T00:51:25.701Z,32.65
2017-11-22T00:52:00.482Z,31.80
2017-11-22T00:52:35.242Z,34.90
2017-11-22T00:53:10.003Z,33.95
2017-11-22T00:53:44.778Z,35.15
2017-11-22T00:54:19.536Z,34.92
2017-11-22T00:54:54.375Z,34.05
2017-11-22T00:55:29.123Z,32.00
2017-11-22T00:56:03.883Z,30.33
2017-11-22T00:56:38.645Z,30.88
2017-11-22T00:57:13.400Z,34.40
2017-11-22T00:57:48.163Z,33.15
2017-11-22T00:58:22.946Z,34.33
2017-11-22T00:58:57.697Z,30.67
2017-11-22T00:59:32.452Z,31.60
2017-11-22T01:00:07.269Z,33.75
2017-11-22T01:00:42.201Z,34.40
2017-11-22T01:01:16.965Z,31.60
2017-11-22T01:01:51.717Z,32.30
2017-11-22T01:02:26.480Z,35.97
2017-11-22T01:03:01.229Z,34.03
2017-11-22T01:03:35.978Z,31.45
2017-11-22T01:04:10.750Z,33.70
2017-11-22T01:04:45.499Z,31.73
2017-11-22T01:05:20.300Z,34.97
2017-11-22T01:05:55.072Z,36.42
2017-11-22T01:06:29.821Z,33.20
2017-11-22T01:07:04.576Z,34.78
2017-11-22T01:07:39.329Z,32.88
2017-11-22T01:08:14.072Z,37.08
2017-11-22T01:08:48.842Z,33.83
2017-11-22T01:09:23.588Z,32.83
2017-11-22T01:09:58.350Z,35.05
2017-11-22T01:10:33.141Z,34.75
2017-11-22T01:11:07.900Z,31.85
2017-11-22T01:11:42.650Z,31.50
2017-11-22T01:12:17.409Z,36.35
2017-11-22T01:12:52.159Z,38.47
2017-11-22T01:13:26.929Z,35.05
2017-11-22T01:14:01.703Z,34.78
2017-11-22T01:14:36.460Z,35.17
2017-11-22T01:15:11.209Z,38.17
2017-11-22T01:15:46.000Z,34.58
2017-11-22T01:16:20.768Z,33.70
2017-11-22T01:16:55.530Z,32.72
2017-11-22T01:17:30.280Z,34.08
2017-11-22T01:18:05.058Z,37.28
2017-11-22T01:18:39.887Z,35.40
2017-11-22T01:19:14.663Z,38.65
2017-11-22T01:19:49.429Z,36.80
2017-11-22T01:22:02.628Z,33.10
2017-11-22T01:22:37.192Z,32.72
2017-11-22T01:23:12.073Z,33.63
2017-11-22T01:23:46.836Z,34.60
2017-11-22T01:24:21.601Z,37.35
2017-11-22T01:24:56.363Z,37.85
2017-11-22T01:25:31.116Z,39.42
2017-11-22T01:26:05.871Z,34.70
2017-11-22T01:26:40.629Z,35.15
2017-11-22T01:27:15.417Z,35.78
2017-11-22T01:27:50.179Z,36.65
2017-11-22T01:28:24.969Z,36.28
2017-11-22T01:28:59.746Z,41.35
2017-11-22T01:29:34.502Z,38.33
2017-11-22T01:30:08.939Z,36.50
2017-11-22T01:30:43.703Z,39.88
2017-11-22T01:31:18.468Z,36.55
2017-11-22T01:31:53.229Z,39.80
2017-11-22T01:32:28.030Z,37.38
2017-11-22T01:33:02.798Z,42.35
2017-11-22T01:33:37.550Z,37.88
2017-11-22T01:34:12.309Z,35.17
2017-11-22T01:34:47.095Z,35.67
2017-11-22T01:35:21.866Z,42.67
2017-11-22T01:35:56.631Z,38.55
2017-11-22T01:36:31.414Z,40.83
2017-11-22T01:37:06.177Z,39.53
2017-11-22T01:37:40.982Z,36.72
2017-11-22T01:38:15.745Z,37.55
2017-11-22T01:38:50.503Z,40.83
2017-11-22T01:39:25.262Z,39.55
2017-11-22T01:40:00.026Z,36.92
2017-11-22T01:40:34.445Z,40.72
2017-11-22T01:41:09.209Z,34.83
2017-11-22T01:41:43.961Z,41.17
2017-11-22T01:42:18.390Z,38.83
2017-11-22T01:42:53.183Z,40.47
2017-11-22T01:43:27.942Z,38.53
2017-11-22T01:44:02.699Z,37.20
2017-11-22T01:44:37.149Z,41.50
2017-11-22T01:45:11.573Z,36.13
2017-11-22T01:45:46.032Z,36.75
2017-11-22T01:46:20.466Z,39.17
2017-11-22T01:46:54.901Z,40.30
2017-11-22T01:47:29.327Z,39.42
2017-11-22T01:48:03.770Z,40.88
2017-11-22T01:48:38.189Z,39.08
2017-11-22T01:49:12.606Z,40.58
2017-11-22T01:49:47.087Z,40.03
2017-11-22T01:50:21.845Z,36.80
2017-11-22T01:50:56.600Z,37.00
2017-11-22T01:51:31.365Z,35.60
2017-11-22T01:52:06.152Z,37.92
2017-11-22T01:52:40.906Z,39.60
2017-11-22T01:53:15.385Z,39.67
2017-11-22T01:53:50.158Z,39.53
2017-11-22T01:54:24.919Z,37.50
2017-11-22T01:54:59.676Z,38.53
2017-11-22T01:55:34.438Z,37.50
2017-11-22T01:56:09.238Z,39.70
2017-11-22T01:56:43.997Z,38.40
2017-11-22T01:57:18.813Z,39.38
2017-11-22T01:57:53.580Z,37.50
2017-11-22T01:58:28.423Z,40.10
2017-11-22T01:59:03.199Z,38.97
2017-11-22T01:59:37.961Z,41.53
2017-11-22T02:00:12.749Z,40.65
2017-11-22T02:00:52.913Z,43.47
2017-11-22T02:01:27.681Z,37.55
2017-11-22T02:02:02.464Z,40.25
2017-11-22T02:02:37.239Z,37.15
2017-11-22T02:03:17.719Z,39.00
2017-11-22T02:03:52.526Z,38.45
2017-11-22T02:04:27.312Z,38.97
2017-11-22T02:05:02.073Z,42.88
2017-11-22T02:05:36.850Z,42.90
2017-11-22T02:06:11.609Z,38.03
2017-11-22T02:06:46.454Z,38.08
2017-11-22T02:07:21.225Z,37.13
2017-11-22T02:07:56.101Z,37.95
2017-11-22T02:08:30.873Z,39.05
2017-11-22T02:09:06.025Z,41.78
2017-11-22T02:09:40.790Z,36.67
2017-11-22T02:10:15.570Z,35.17
2017-11-22T02:10:50.334Z,33.78
2017-11-22T02:11:25.099Z,34.30
2017-11-22T02:11:59.879Z,36.90
2017-11-22T02:12:34.642Z,36.70
2017-11-22T02:13:09.457Z,34.97
2017-11-22T02:13:44.221Z,34.67
2017-11-22T02:14:18.678Z,38.85
2017-11-22T02:14:53.453Z,33.35
2017-11-22T02:15:28.218Z,33.60
2017-11-22T02:16:02.974Z,33.20
2017-11-22T02:16:37.731Z,32.90
2017-11-22T02:17:12.174Z,34.42
2017-11-22T02:17:46.948Z,36.35
2017-11-22T02:18:21.710Z,32.33
2017-11-22T02:18:56.505Z,33.13
2017-11-22T02:19:31.305Z,34.60
2017-11-22T02:20:06.115Z,31.95
2017-11-22T02:20:40.878Z,32.15
2017-11-22T02:21:15.661Z,31.00
2017-11-22T02:21:50.468Z,33.92
2017-11-22T02:22:25.221Z,31.33
2017-11-22T02:23:00.098Z,35.17
2017-11-22T02:23:34.879Z,35.28
2017-11-22T02:24:09.637Z,37.97
2017-11-22T02:24:44.771Z,32.30
2017-11-22T02:25:19.565Z,31.70
2017-11-22T02:25:54.346Z,34.17
2017-11-22T02:26:28.804Z,30.52
2017-11-22T02:27:03.577Z,30.67
2017-11-22T02:27:38.346Z,33.33
2017-11-22T02:28:13.116Z,33.78
2017-11-22T02:28:47.881Z,30.62
2017-11-22T02:29:22.321Z,35.00
2017-11-22T02:29:57.120Z,31.80
2017-11-22T02:30:31.879Z,28.67
2017-11-22T02:31:06.398Z,30.65
2017-11-22T02:31:40.837Z,33.28
2017-11-22T02:32:15.293Z,30.98
2017-11-22T02:32:50.396Z,30.17
2017-11-22T02:33:25.163Z,29.35
2017-11-22T02:33:59.934Z,32.35
2017-11-22T02:34:34.794Z,27.67
2017-11-22T02:35:09.602Z,30.48
2017-11-22T02:35:44.369Z,30.45
2017-11-22T02:36:19.145Z,30.23
2017-11-22T02:36:53.917Z,28.52
2017-11-22T02:37:28.683Z,29.75
2017-11-22T02:38:03.431Z,29.15
2017-11-22T02:38:38.192Z,29.85
2017-11-22T02:39:12.613Z,29.65
2017-11-22T02:39:47.386Z,25.98
2017-11-22T02:40:22.182Z,28.73
2017-11-22T02:40:56.955Z,27.95
2017-11-22T02:41:31.390Z,24.70
2017-11-22T02:42:06.170Z,24.30
2017-11-22T02:42:40.935Z,26.55
2017-11-22T02:43:15.730Z,25.30
2017-11-22T02:43:50.498Z,27.52
2017-11-22T02:44:25.291Z,27.55
2017-11-22T02:45:00.046Z,22.48
2017-11-22T02:45:34.831Z,25.40
2017-11-22T02:46:09.582Z,26.02
2017-11-22T02:46:44.363Z,24.95
2017-11-22T02:47:18.799Z,25.88
2017-11-22T02:47:53.217Z,27.05
2017-11-22T02:48:28.002Z,26.02
2017-11-22T02:49:02.783Z,25.52
2017-11-22T02:49:39.451Z,24.48
2017-11-22T02:50:14.216Z,24.63
2017-11-22T02:50:49.007Z,23.30
2017-11-22T02:51:23.766Z,26.48
2017-11-22T02:51:58.531Z,25.52
2017-11-22T02:52:33.286Z,25.30
2017-11-22T02:53:08.048Z,21.70
2017-11-22T02:53:42.830Z,22.85
2017-11-22T02:54:17.615Z,22.75
2017-11-22T02:54:52.386Z,24.02
2017-11-22T02:55:26.827Z,22.73
2017-11-22T02:56:01.290Z,25.05
2017-11-22T02:56:35.732Z,25.33
2017-11-22T02:57:10.172Z,23.27
2017-11-22T02:57:44.609Z,24.20
2017-11-22T02:58:19.049Z,21.73
2017-11-22T02:58:53.817Z,24.27
2017-11-22T02:59:28.649Z,21.20
2017-11-22T03:00:44.223Z,20.65
2017-11-22T03:01:19.027Z,20.58
2017-11-22T03:01:53.803Z,21.08
2017-11-22T03:02:28.602Z,22.13
2017-11-22T03:03:03.375Z,22.65
2017-11-22T03:03:38.145Z,21.10
2017-11-22T03:04:12.913Z,20.05
2017-11-22T03:04:47.694Z,23.73
2017-11-22T03:05:22.458Z,20.45
2017-11-22T03:05:57.320Z,23.02
2017-11-22T03:06:32.106Z,20.08
2017-11-22T03:07:06.869Z,21.35
2017-11-22T03:07:41.641Z,18.17
2017-11-22T03:08:16.422Z,21.80
2017-11-22T03:08:51.201Z,20.80
2017-11-22T03:09:25.965Z,20.75
2017-11-22T03:10:00.744Z,20.20
2017-11-22T03:10:35.518Z,18.75
2017-11-22T03:11:10.357Z,17.65
2017-11-22T03:11:45.174Z,17.70
2017-11-22T03:12:19.930Z,21.70
2017-11-22T03:12:54.697Z,20.50
2017-11-22T03:13:29.473Z,19.83
2017-11-22T03:14:04.230Z,18.55
2017-11-22T03:14:38.988Z,20.00
2017-11-22T03:15:13.746Z,19.23
2017-11-22T03:15:48.513Z,17.12
2017-11-22T03:16:23.282Z,21.25
2017-11-22T03:16:58.108Z,18.40
2017-11-22T03:17:32.912Z,20.98
2017-11-22T03:18:07.863Z,17.83
2017-11-22T03:18:42.629Z,19.98
2017-11-22T03:19:17.390Z,16.77
2017-11-22T03:19:52.178Z,18.35
2017-11-22T03:20:26.954Z,19.90
2017-11-22T03:21:01.724Z,19.05
2017-11-22T03:21:36.485Z,19.15
2017-11-22T03:22:11.267Z,19.25
2017-11-22T03:22:46.027Z,18.60
2017-11-22T03:23:20.795Z,18.90
2017-11-22T03:23:55.232Z,18.23
2017-11-22T03:24:29.991Z,16.87
2017-11-22T03:25:04.753Z,17.40
2017-11-22T03:25:39.520Z,17.62
2017-11-22T03:26:14.295Z,17.45
2017-11-22T03:26:49.045Z,19.65
2017-11-22T03:27:23.875Z,16.95
2017-11-22T03:27:58.632Z,17.33
2017-11-22T03:28:33.387Z,18.45
2017-11-22T03:29:08.158Z,18.60
2017-11-22T03:29:42.911Z,16.20
2017-11-22T03:30:17.683Z,17.62
2017-11-22T03:30:52.468Z,16.37
2017-11-22T03:31:27.242Z,17.05
2017-11-22T03:32:02.003Z,15.27
2017-11-22T03:32:36.611Z,16.92
2017-11-22T03:33:11.383Z,17.73
2017-11-22T03:33:46.170Z,16.52
2017-11-22T03:34:20.949Z,16.75
2017-11-22T03:34:55.779Z,17.27
2017-11-22T03:35:30.532Z,15.50
2017-11-22T03:36:04.961Z,15.70
2017-11-22T03:36:39.382Z,17.12
2017-11-22T03:37:13.858Z,16.15
2017-11-22T03:37:48.674Z,19.75
2017-11-22T03:38:23.441Z,14.65
2017-11-22T03:38:57.886Z,17.52
2017-11-22T03:39:32.649Z,17.35
2017-11-22T03:40:07.433Z,15.57
2017-11-22T03:40:42.284Z,14.68
2017-11-22T03:41:17.049Z,17.75
2017-11-22T03:41:51.805Z,15.15
2017-11-22T03:42:26.576Z,17.80
2017-11-22T03:43:01.029Z,19.20
2017-11-22T03:43:35.785Z,15.20
2017-11-22T03:44:10.782Z,18.20
2017-11-22T03:44:45.559Z,14.23
2017-11-22T03:45:20.329Z,15.63
2017-11-22T03:45:55.074Z,13.23
2017-11-22T03:46:29.495Z,15.07
2017-11-22T03:47:03.921Z,13.57
2017-11-22T03:47:38.361Z,15.45
2017-11-22T03:48:16.120Z,16.02
2017-11-22T03:48:56.481Z,16.77
2017-11-22T03:49:30.905Z,15.02
2017-11-22T03:50:11.423Z,16.60
2017-11-22T03:50:51.706Z,14.95
2017-11-22T03:51:31.601Z,14.15
2017-11-22T03:52:12.052Z,15.70
2017-11-22T03:52:52.377Z,14.07
2017-11-22T03:53:32.697Z,17.55
2017-11-22T03:54:07.450Z,12.90
2017-11-22T03:54:41.863Z,13.43
2017-11-22T03:55:16.654Z,14.80
2017-11-22T03:55:51.398Z,12.80
2017-11-22T03:56:26.163Z,13.18
2017-11-22T03:57:00.579Z,14.55
2017-11-22T03:57:35.316Z,13.40
2017-11-22T03:58:15.579Z,14.10
2017-11-22T03:58:50.034Z,12.02
2017-11-22T03:59:24.785Z,13.62
2017-11-22T03:59:59.210Z,12.95
2017-11-22T04:00:33.732Z,12.23
2017-11-22T04:01:08.152Z,16.20
2017-11-22T04:01:44.776Z,12.32
2017-11-22T04:02:25.403Z,12.20
2017-11-22T04:03:05.685Z,13.07
2017-11-22T04:03:44.268Z,13.40
2017-11-22T04:04:20.986Z,13.82
2017-11-22T04:04:55.741Z,13.45
2017-11-22T04:05:33.242Z,13.70
2017-11-22T04:06:08.033Z,14.05
2017-11-22T04:06:42.773Z,13.73
2017-11-22T04:07:17.513Z,13.68
2017-11-22T04:07:53.084Z,14.05
2017-11-22T04:08:27.835Z,12.55
2017-11-22T04:09:02.399Z,10.70
2017-11-22T04:09:36.853Z,10.95
2017-11-22T04:10:11.620Z,11.60
2017-11-22T04:10:48.192Z,11.88
2017-11-22T04:11:22.961Z,12.15
2017-11-22T04:11:57.705Z,10.10
2017-11-22T04:12:32.461Z,11.82
2017-11-22T04:13:07.578Z,9.90
2017-11-22T04:13:42.320Z,12.37
2017-11-22T04:14:17.076Z,11.90
2017-11-22T04:14:51.865Z,13.77
2017-11-22T04:15:26.624Z,10.07
2017-11-22T04:16:01.376Z,10.52
2017-11-22T04:16:36.144Z,11.98
2017-11-22T04:17:10.896Z,14.05
2017-11-22T04:17:45.677Z,11.02
2017-11-22T04:18:20.248Z,11.32
2017-11-22T04:19:00.634Z,12.05
2017-11-22T04:19:39.203Z,11.43
2017-11-22T04:20:23.736Z,10.20
2017-11-22T04:20:58.520Z,12.32
2017-11-22T04:21:33.276Z,9.73
2017-11-22T04:22:08.028Z,9.98
2017-11-22T04:22:42.790Z,13.80
2017-11-22T04:23:17.541Z,13.02
2017-11-22T04:23:52.295Z,10.73
2017-11-22T04:24:27.048Z,11.30
2017-11-22T04:25:02.367Z,10.98
2017-11-22T04:25:37.152Z,12.05
2017-11-22T04:26:11.917Z,11.27
2017-11-22T04:26:46.677Z,13.55
2017-11-22T04:27:21.410Z,11.57
2017-11-22T04:27:56.140Z,9.98
2017-11-22T04:28:30.874Z,11.18
2017-11-22T04:29:05.953Z,11.88
2017-11-22T04:29:40.664Z,9.70
2017-11-22T04:30:15.399Z,11.10
2017-11-22T04:30:50.197Z,11.95
2017-11-22T04:31:25.010Z,10.45
2017-11-22T04:31:59.762Z,12.02
2017-11-22T04:32:34.543Z,10.13
2017-11-22T04:33:09.308Z,11.00
2017-11-22T04:33:44.074Z,9.48
2017-11-22T04:34:18.842Z,9.57
2017-11-22T04:34:53.592Z,9.40
2017-11-22T04:35:28.354Z,10.60
2017-11-22T04:36:03.155Z,10.02
2017-11-22T04:36:38.019Z,10.98
2017-11-22T04:37:12.810Z,10.65
2017-11-22T04:37:47.581Z,11.85
2017-11-22T04:38:22.364Z,9.90
2017-11-22T04:38:57.132Z,9.85
2017-11-22T04:39:31.892Z,9.82
2017-11-22T04:40:06.667Z,10.40
2017-11-22T04:40:41.425Z,11.35
2017-11-22T04:41:16.222Z,12.18
2017-11-22T04:41:50.660Z,10.25
2017-11-22T04:42:26.047Z,9.40
2017-11-22T04:43:00.798Z,10.23
2017-11-22T04:43:35.225Z,11.85
2017-11-22T04:44:09.666Z,10.68
2017-11-22T04:44:44.115Z,13.18
2017-11-22T04:45:18.530Z,9.20
2017-11-22T04:45:52.966Z,9.55
2017-11-22T04:46:27.414Z,9.73
2017-11-22T04:47:01.838Z,9.95
2017-11-22T04:47:36.274Z,11.05
2017-11-22T04:48:10.713Z,10.80
2017-11-22T04:48:45.138Z,9.25
2017-11-22T04:49:19.579Z,10.77
2017-11-22T04:49:54.354Z,11.15
2017-11-22T04:50:29.153Z,10.27
2017-11-22T04:51:03.599Z,9.00
2017-11-22T04:51:38.365Z,10.43
2017-11-22T04:52:12.803Z,9.75
2017-11-22T04:52:47.556Z,9.57
2017-11-22T04:53:22.324Z,10.68
2017-11-22T04:53:57.072Z,10.70
2017-11-22T04:54:31.818Z,9.48
2017-11-22T04:55:06.579Z,10.20
2017-11-22T04:55:41.007Z,10.05
2017-11-22T04:56:15.426Z,9.63
2017-11-22T04:56:50.299Z,10.80
2017-11-22T04:57:25.098Z,10.57
2017-11-22T04:57:59.858Z,9.45
2017-11-22T04:58:34.639Z,12.50
2017-11-22T04:59:09.060Z,9.65
2017-11-22T04:59:43.831Z,14.77
2017-11-22T05:00:18.284Z,10.38
2017-11-22T05:00:53.043Z,10.50
2017-11-22T05:01:27.912Z,8.35
2017-11-22T05:02:02.681Z,11.05
2017-11-22T05:02:37.435Z,10.63
2017-11-22T05:03:12.215Z,10.85
2017-11-22T05:03:46.979Z,10.35
2017-11-22T05:04:21.736Z,9.55
2017-11-22T05:04:56.492Z,9.55
2017-11-22T05:05:31.249Z,10.93
2017-11-22T05:06:06.033Z,10.43
2017-11-22T05:06:40.782Z,14.20
2017-11-22T05:07:15.584Z,12.15
2017-11-22T05:07:50.341Z,11.98
2017-11-22T05:08:24.787Z,12.00
2017-11-22T05:08:59.558Z,9.30
2017-11-22T05:09:34.317Z,11.60
2017-11-22T05:10:09.071Z,13.85
2017-11-22T05:10:43.510Z,10.65
2017-11-22T05:11:17.945Z,11.52
2017-11-22T05:11:52.843Z,11.43
2017-11-22T05:12:27.310Z,13.68
2017-11-22T05:13:02.093Z,12.60
2017-11-22T05:13:36.860Z,10.70
2017-11-22T05:14:11.641Z,10.82
2017-11-22T05:14:46.407Z,10.02
2017-11-22T05:15:20.937Z,11.68
2017-11-22T05:15:55.689Z,11.25
2017-11-22T05:16:30.442Z,12.23
2017-11-22T05:17:11.989Z,12.73
2017-11-22T05:17:46.770Z,10.05
2017-11-22T05:18:21.519Z,11.52
2017-11-22T05:18:56.293Z,12.05
2017-11-22T05:19:31.077Z,12.70
2017-11-22T05:20:05.834Z,11.57
2017-11-22T05:20:40.597Z,10.68
2017-11-22T05:21:15.398Z,12.00
2017-11-22T05:21:50.193Z,11.18
2017-11-22T05:22:25.006Z,11.30
2017-11-22T05:22:59.801Z,12.05
2017-11-22T05:23:34.558Z,16.45
2017-11-22T05:24:09.004Z,10.70
2017-11-22T05:24:43.774Z,10.90
2017-11-22T05:25:18.654Z,11.43
2017-11-22T05:25:53.423Z,14.93
2017-11-22T05:26:28.184Z,13.70
2017-11-22T05:27:02.997Z,11.40
2017-11-22T05:27:37.761Z,20.20
2017-11-22T05:28:12.577Z,12.18
2017-11-22T05:28:47.331Z,11.10
2017-11-22T05:29:22.094Z,14.87
2017-11-22T05:29:56.872Z,13.02
2017-11-22T05:30:31.830Z,14.10
2017-11-22T05:31:06.606Z,17.87
2017-11-22T05:31:41.361Z,14.15
2017-11-22T05:32:16.141Z,12.48
2017-11-22T05:32:50.904Z,15.05
2017-11-22T05:33:25.720Z,17.08
2017-11-22T05:34:00.500Z,18.92
2017-11-22T05:34:35.262Z,21.70
2017-11-22T05:35:10.079Z,16.70
2017-11-22T05:35:44.875Z,17.77
2017-11-22T05:36:19.661Z,17.50
2017-11-22T05:36:54.475Z,16.08
2017-11-22T05:37:29.282Z,16.48
2017-11-22T05:38:04.076Z,17.62
2017-11-22T05:38:38.915Z,16.27
2017-11-22T05:39:13.724Z,19.83
2017-11-22T05:39:48.548Z,16.87
2017-11-22T05:40:23.352Z,16.23
2017-11-22T05:40:58.129Z,18.92
2017-11-22T05:41:32.920Z,16.90
2017-11-22T05:42:08.453Z,21.92
2017-11-22T05:42:43.253Z,19.10
2017-11-22T05:43:18.025Z,19.02
2017-11-22T05:43:52.879Z,19.17
2017-11-22T05:44:27.766Z,25.15
2017-11-22T05:45:02.551Z,19.50
2017-11-22T05:45:37.326Z,22.62
2017-11-22T05:46:12.128Z,20.80
2017-11-22T05:46:46.901Z,21.23
2017-11-22T05:47:21.970Z,22.20
2017-11-22T05:47:56.759Z,26.23
2017-11-22T05:48:31.552Z,22.67
2017-11-22T05:49:06.344Z,24.25
2017-11-22T05:49:41.117Z,24.30
2017-11-22T05:50:15.930Z,25.08
2017-11-22T05:50:50.712Z,24.52
2017-11-22T05:51:25.507Z,30.42
2017-11-22T05:52:00.388Z,23.17
2017-11-22T05:52:35.149Z,27.17
2017-11-22T05:53:09.932Z,23.10
2017-11-22T05:53:44.717Z,22.45
2017-11-22T05:54:19.518Z,26.62
2017-11-22T05:54:54.295Z,20.95
2017-11-22T05:55:28.784Z,22.73
2017-11-22T05:56:03.235Z,25.70
2017-11-22T05:56:38.018Z,25.05
2017-11-22T05:57:12.950Z,29.10
2017-11-22T05:57:47.719Z,28.00
2017-11-22T05:58:22.489Z,23.42
2017-11-22T05:58:57.256Z,25.92
2017-11-22T05:59:32.105Z,30.10
2017-11-22T06:00:06.855Z,26.77
2017-11-22T06:00:46.594Z,26.08
2017-11-22T06:01:21.583Z,27.17
2017-11-22T06:01:56.371Z,25.48
2017-11-22T06:02:30.838Z,27.98
2017-11-22T06:03:05.598Z,30.17
2017-11-22T06:03:40.361Z,26.67
2017-11-22T06:04:15.144Z,26.23
2017-11-22T06:04:49.972Z,28.23
2017-11-22T06:05:24.840Z,40.22
2017-11-22T06:05:59.618Z,29.52
2017-11-22T06:06:34.388Z,30.55
2017-11-22T06:07:09.206Z,33.08
2017-11-22T06:07:43.962Z,31.10
2017-11-22T06:08:18.838Z,28.45
2017-11-22T06:08:53.594Z,30.85
2017-11-22T06:09:28.361Z,32.78
2017-11-22T06:10:03.471Z,38.85
2017-11-22T06:10:38.243Z,28.80
2017-11-22T06:11:13.007Z,31.87
2017-11-22T06:11:47.828Z,31.98
2017-11-22T06:12:22.594Z,30.73
2017-11-22T06:12:57.354Z,29.23
2017-11-22T06:13:32.121Z,28.02
2017-11-22T06:14:06.897Z,28.60
2017-11-22T06:14:41.676Z,36.20
2017-11-22T06:15:16.485Z,36.40
2017-11-22T06:15:51.274Z,35.28
2017-11-22T06:16:26.044Z,35.33
2017-11-22T06:17:00.882Z,37.00
2017-11-22T06:17:35.681Z,29.52
2017-11-22T06:18:11.107Z,25.05
2017-11-22T06:18:45.872Z,30.10
2017-11-22T06:19:20.649Z,36.58
2017-11-22T06:19:55.445Z,33.00
2017-11-22T06:20:30.233Z,28.83
2017-11-22T06:21:05.008Z,37.40
2017-11-22T06:21:40.391Z,35.15
2017-11-22T06:22:15.185Z,33.05
2017-11-22T06:22:49.961Z,30.48
2017-11-22T06:23:24.753Z,33.28
2017-11-22T06:23:59.520Z,33.60
2017-11-22T06:24:34.296Z,36.22
2017-11-22T06:25:09.128Z,35.75
2017-11-22T06:25:44.238Z,41.58
2017-11-22T06:26:19.008Z,32.13
2017-11-22T06:26:53.814Z,36.08
2017-11-22T06:27:28.582Z,31.17
2017-11-22T06:28:03.377Z,31.55
2017-11-22T06:28:38.159Z,33.72
2017-11-22T06:29:12.930Z,33.28
2017-11-22T06:29:49.551Z,33.53
2017-11-22T06:30:29.890Z,36.95
2017-11-22T06:31:04.701Z,34.80
2017-11-22T06:31:39.508Z,34.05
2017-11-22T06:32:14.579Z,33.80
2017-11-22T06:32:49.475Z,27.70
2017-11-22T06:33:24.370Z,40.88
2017-11-22T06:33:59.151Z,37.45
2017-11-22T06:34:33.939Z,37.03
2017-11-22T06:35:08.719Z,36.35
2017-11-22T06:35:43.504Z,35.78
2017-11-22T06:36:18.298Z,33.78
2017-11-22T06:36:53.074Z,33.83
2017-11-22T06:37:27.859Z,32.30
2017-11-22T06:38:02.653Z,39.35
2017-11-22T06:38:37.434Z,36.33
2017-11-22T06:39:28.690Z,31.65
2017-11-22T06:40:03.450Z,35.88
2017-11-22T06:40:38.240Z,37.20
2017-11-22T06:41:13.016Z,35.75
2017-11-22T06:41:48.934Z,33.92
2017-11-22T06:42:23.738Z,32.47
2017-11-22T06:43:01.553Z,33.42
2017-11-22T06:43:36.629Z,36.20
2017-11-22T06:44:14.396Z,35.45
2017-11-22T06:44:49.560Z,41.00
2017-11-22T06:45:24.345Z,35.60
2017-11-22T06:45:59.130Z,36.78
2017-11-22T06:46:33.918Z,40.63
2017-11-22T06:47:08.730Z,35.38
2017-11-22T06:47:43.495Z,40.03
2017-11-22T06:48:18.273Z,40.03
2017-11-22T06:48:53.094Z,39.78
2017-11-22T06:49:27.873Z,34.40
2017-11-22T06:50:02.650Z,37.95
2017-11-22T06:50:37.426Z,37.92
2017-11-22T06:51:11.861Z,37.33
2017-11-22T06:51:46.638Z,38.80
2017-11-22T06:52:21.561Z,37.42
2017-11-22T06:52:56.327Z,40.03
2017-11-22T06:53:31.134Z,44.55
2017-11-22T06:54:06.084Z,36.67
2017-11-22T06:54:40.859Z,39.13
2017-11-22T06:55:15.619Z,39.65
2017-11-22T06:55:50.400Z,36.95
2017-11-22T06:56:25.193Z,41.97
2017-11-22T06:57:00.892Z,43.90
2017-11-22T06:57:35.697Z,35.78
2017-11-22T06:58:10.483Z,47.00
2017-11-22T06:58:45.257Z,37.38
2017-11-22T06:59:20.033Z,45.30
2017-11-22T06:59:54.807Z,41.47
2017-11-22T07:00:29.582Z,43.47
2017-11-22T07:01:04.354Z,44.97
2017-11-22T07:01:39.124Z,41.88
2017-11-22T07:02:19.590Z,41.05
2017-11-22T07:02:54.389Z,51.22
2017-11-22T07:03:32.994Z,46.03
2017-11-22T07:04:07.761Z,46.50
2017-11-22T07:04:42.541Z,47.30
2017-11-22T07:05:17.318Z,40.38
2017-11-22T07:05:51.754Z,46.40
2017-11-22T07:06:26.533Z,47.47
2017-11-22T07:07:01.294Z,46.65
2017-11-22T07:07:36.095Z,39.30
2017-11-22T07:08:10.882Z,46.90
2017-11-22T07:08:45.666Z,45.40
2017-11-22T07:09:20.459Z,44.80
2017-11-22T07:09:55.250Z,49.85
2017-11-22T07:10:30.019Z,44.47
2017-11-22T07:11:04.780Z,45.20
2017-11-22T07:11:39.565Z,40.85
2017-11-22T07:12:14.331Z,46.30
2017-11-22T07:12:49.105Z,42.80
2017-11-22T07:13:23.913Z,54.15
2017-11-22T07:13:58.708Z,48.15
2017-11-22T07:14:33.487Z,43.22
2017-11-22T07:15:08.264Z,46.30
2017-11-22T07:15:43.042Z,43.78
2017-11-22T07:16:23.417Z,45.08
2017-11-22T07:17:03.789Z,46.22
2017-11-22T07:17:38.587Z,45.08
2017-11-22T07:18:13.381Z,45.75
2017-11-22T07:18:48.176Z,44.83
2017-11-22T07:19:22.968Z,50.45
2017-11-22T07:19:57.772Z,50.22
2017-11-22T07:20:32.554Z,48.13
2017-11-22T07:21:07.341Z,48.75
2017-11-22T07:21:42.116Z,50.65
2017-11-22T07:22:16.896Z,41.95
2017-11-22T07:22:51.658Z,47.55
2017-11-22T07:23:26.521Z,51.13
2017-11-22T07:24:00.996Z,51.95
2017-11-22T07:24:35.770Z,48.03
2017-11-22T07:25:10.578Z,50.10
2017-11-22T07:25:45.353Z,47.28
2017-11-22T07:26:20.126Z,58.35
2017-11-22T07:26:54.904Z,55.97
2017-11-22T07:27:29.699Z,51.47
2017-11-22T07:28:04.659Z,55.83
2017-11-22T07:28:39.430Z,50.22
2017-11-22T07:29:14.241Z,52.65
2017-11-22T07:29:49.039Z,48.83
2017-11-22T07:30:23.809Z,45.45
2017-11-22T07:30:58.592Z,54.90
2017-11-22T07:31:33.376Z,52.55
2017-11-22T07:32:08.138Z,51.47
2017-11-22T07:32:42.898Z,51.95
2017-11-22T07:33:17.677Z,50.20